Time;durP1;ratioP1;P1;durP2;ratioP2;P2;SDS_P1;SDS_P2;PMS_P1;PMS_P2;Temp;Humidity;BMP_temperature;BMP_pressure;BME280_temperature;BME280_humidity;BME280_pressure;Samples;Min_cycle;Max_cycle;Signal;HPM_P1;HPM_P2
2023/06/21 00:01:44;;;;;;;10.82;8.38;;;;;;;26.95;49.83;100199.81;5071004;28;20071;-69
2023/06/21 00:04:12;;;;;;;9.82;8.02;;;;;;;26.93;49.78;100197.28;5073080;28;20041;-69
2023/06/21 00:06:45;;;;;;;12.32;8.88;;;;;;;26.93;49.77;100190.97;5074521;28;20049;-69
2023/06/21 00:09:13;;;;;;;11.05;8.60;;;;;;;26.92;50.04;100181.03;5074681;28;20048;-69
2023/06/21 00:11:42;;;;;;;10.77;8.65;;;;;;;26.92;50.45;100178.28;5074702;28;20050;-69
2023/06/21 00:14:10;;;;;;;11.75;8.80;;;;;;;26.91;50.71;100187.56;5074290;28;20056;-69
2023/06/21 00:16:40;;;;;;;11.70;9.07;;;;;;;26.89;51.53;100189.66;5074439;28;20460;-69
2023/06/21 00:19:08;;;;;;;11.18;8.65;;;;;;;26.87;51.49;100180.81;5074413;28;20044;-69
2023/06/21 00:21:38;;;;;;;13.35;8.80;;;;;;;26.86;51.59;100190.06;5074484;28;20055;-69
2023/06/21 00:24:08;;;;;;;10.77;9.32;;;;;;;26.85;52.20;100188.38;5074196;28;20044;-69
2023/06/21 00:26:36;;;;;;;12.75;9.13;;;;;;;26.84;52.29;100193.00;5074419;28;20132;-69
2023/06/21 00:29:04;;;;;;;11.30;8.77;;;;;;;26.81;52.21;100193.38;5074264;28;20160;-69
2023/06/21 00:31:32;;;;;;;14.20;9.70;;;;;;;26.79;52.80;100190.84;5074102;28;20134;-69
2023/06/21 00:34:02;;;;;;;13.60;9.40;;;;;;;26.79;52.87;100188.09;5074057;28;20509;-69
2023/06/21 00:36:30;;;;;;;13.38;9.20;;;;;;;26.77;52.65;100186.63;5074291;28;20094;-68
2023/06/21 00:38:58;;;;;;;12.52;8.77;;;;;;;26.73;52.68;100188.94;5074095;28;20079;-69
2023/06/21 00:41:26;;;;;;;11.93;8.73;;;;;;;26.73;53.00;100193.53;5074251;28;20103;-68
2023/06/21 00:43:54;;;;;;;9.68;8.23;;;;;;;26.70;53.46;100186.56;5073895;28;20151;-68
2023/06/21 00:46:22;;;;;;;10.63;8.55;;;;;;;26.68;53.33;100193.28;5074148;28;20059;-68
2023/06/21 00:48:51;;;;;;;11.73;8.80;;;;;;;26.67;53.38;100197.91;5074039;28;20395;-68
2023/06/21 00:51:20;;;;;;;11.00;9.13;;;;;;;26.66;53.76;100196.22;5073738;28;20495;-68
2023/06/21 00:53:49;;;;;;;12.45;9.05;;;;;;;26.62;53.83;100200.38;5073605;28;20052;-68
2023/06/21 00:56:17;;;;;;;12.23;8.82;;;;;;;26.61;53.99;100198.69;5073626;28;20099;-69
2023/06/21 00:58:46;;;;;;;12.40;8.40;;;;;;;26.58;53.91;100204.56;5073439;28;20416;-69
2023/06/21 01:01:14;;;;;;;11.65;8.82;;;;;;;26.57;53.71;100207.50;5073716;28;20075;-68
2023/06/21 01:03:42;;;;;;;10.95;8.93;;;;;;;26.55;54.01;100199.50;5073733;28;20535;-69
2023/06/21 01:06:19;;;;;;;10.65;8.00;;;;;;;26.55;54.13;100199.50;5073516;28;20044;-69
2023/06/21 01:08:58;;;;;;;10.85;8.57;;;;;;;26.54;53.63;100200.56;5073426;28;20056;-69
2023/06/21 01:11:29;;;;;;;13.80;8.85;;;;;;;26.51;53.73;100204.50;5073159;28;20478;-68
2023/06/21 01:14:10;;;;;;;10.30;8.45;;;;;;;26.51;53.85;100203.66;5072777;28;20048;-69
2023/06/21 01:16:40;;;;;;;10.15;8.38;;;;;;;26.49;54.04;100211.22;5073325;28;20045;-69
2023/06/21 01:19:22;;;;;;;11.48;8.32;;;;;;;26.49;54.08;100203.00;5073229;28;20047;-69
2023/06/21 01:21:53;;;;;;;13.32;8.88;;;;;;;26.48;54.36;100204.06;5073358;28;20064;-69
2023/06/21 01:24:32;;;;;;;10.98;8.70;;;;;;;26.42;54.03;100216.63;5073285;28;20060;-69
2023/06/21 01:27:22;;;;;;;12.27;8.60;;;;;;;26.40;54.39;100204.19;5073024;28;20048;-69
2023/06/21 01:29:55;;;;;;;11.07;8.18;;;;;;;26.37;53.99;100212.75;5072924;28;20055;-69
2023/06/21 01:32:26;;;;;;;12.27;8.43;;;;;;;26.34;54.37;100213.13;5072873;28;20479;-69
2023/06/21 01:34:55;;;;;;;13.60;8.68;;;;;;;26.30;54.55;100206.38;5072958;28;20056;-70
2023/06/21 01:37:23;;;;;;;9.95;8.30;;;;;;;26.29;54.40;100205.53;5073123;28;20047;-70
2023/06/21 01:39:52;;;;;;;11.80;9.10;;;;;;;26.25;54.60;100202.34;5073217;28;20044;-70
2023/06/21 01:42:23;;;;;;;13.55;8.50;;;;;;;26.25;54.76;100210.56;5073211;28;20049;-69
2023/06/21 01:44:53;;;;;;;10.70;8.52;;;;;;;26.24;54.55;100195.16;5072873;28;20462;-70
2023/06/21 01:47:22;;;;;;;10.23;8.45;;;;;;;26.22;55.23;100193.69;5072988;28;20094;-69
2023/06/21 01:49:50;;;;;;;11.80;8.48;;;;;;;26.20;55.11;100193.88;5073168;28;20052;-69
2023/06/21 01:52:20;;;;;;;11.07;8.23;;;;;;;26.16;54.85;100205.41;5072988;28;20072;-69
2023/06/21 01:54:49;;;;;;;12.45;8.68;;;;;;;26.13;54.83;100201.16;5072550;28;20477;-70
2023/06/21 01:57:19;;;;;;;12.07;8.65;;;;;;;26.12;54.81;100204.94;5072490;28;20131;-70
2023/06/21 01:59:49;;;;;;;9.57;8.23;;;;;;;26.11;54.99;100210.59;5072689;28;20105;-69
2023/06/21 02:02:22;;;;;;;12.55;8.25;;;;;;;26.10;55.13;100212.50;5072581;28;20044;-69
2023/06/21 02:04:52;;;;;;;11.77;8.98;;;;;;;26.09;55.33;100208.06;5072627;28;20066;-69
2023/06/21 02:07:20;;;;;;;10.23;8.57;;;;;;;26.08;55.02;100209.09;5072313;28;20140;-69
2023/06/21 02:09:49;;;;;;;11.80;8.35;;;;;;;26.08;55.40;100211.00;5072188;28;20049;-69
2023/06/21 02:12:17;;;;;;;11.07;8.43;;;;;;;26.08;55.46;100206.38;5072352;28;20063;-69
2023/06/21 02:14:45;;;;;;;10.18;8.15;;;;;;;26.07;55.28;100212.03;5071885;28;20448;-69
2023/06/21 02:17:14;;;;;;;12.48;8.52;;;;;;;26.06;55.44;100211.19;5071485;28;20466;-70
2023/06/21 02:19:43;;;;;;;11.50;8.77;;;;;;;26.05;55.21;100209.47;5072134;28;20044;-69
2023/06/21 02:22:12;;;;;;;11.10;8.82;;;;;;;26.04;55.18;100215.97;5071923;28;20045;-69
2023/06/21 02:24:40;;;;;;;10.63;8.65;;;;;;;26.04;55.46;100218.72;5072176;28;20052;-70
2023/06/21 02:27:09;;;;;;;10.77;8.88;;;;;;;26.03;55.59;100213.44;5071176;28;20052;-70
2023/06/21 02:29:37;;;;;;;9.90;8.35;;;;;;;26.03;55.71;100213.44;5071892;28;20041;-69
2023/06/21 02:32:06;;;;;;;9.63;8.63;;;;;;;26.01;55.30;100207.34;5072004;28;20049;-69
2023/06/21 02:34:35;;;;;;;11.20;8.32;;;;;;;26.00;55.33;100211.13;5071814;28;20080;-69
2023/06/21 02:37:11;;;;;;;11.73;8.55;;;;;;;25.97;55.49;100212.34;5071682;28;20056;-69
2023/06/21 02:39:40;;;;;;;11.52;8.40;;;;;;;25.96;55.08;100213.34;5071779;28;20060;-69
2023/06/21 02:42:08;;;;;;;11.38;8.60;;;;;;;25.95;55.56;100208.94;5071889;28;20169;-69
2023/06/21 02:44:36;;;;;;;10.30;8.35;;;;;;;25.93;55.18;100211.03;5071706;28;20083;-69
2023/06/21 02:47:05;;;;;;;10.27;8.30;;;;;;;25.93;54.94;100216.50;5071776;28;20050;-70
2023/06/21 02:49:36;;;;;;;10.60;7.97;;;;;;;25.92;55.11;100212.91;5071864;28;20090;-70
2023/06/21 02:52:08;;;;;;;10.45;8.23;;;;;;;25.90;55.11;100209.53;5071746;28;20040;-70
2023/06/21 02:54:36;;;;;;;10.27;8.70;;;;;;;25.89;55.17;100209.72;5071705;28;20140;-70
2023/06/21 02:57:04;;;;;;;11.68;8.57;;;;;;;25.88;55.01;100208.88;5071629;28;20520;-70
2023/06/21 02:59:33;;;;;;;10.10;7.90;;;;;;;25.85;55.16;100214.72;5071493;28;20051;-70
2023/06/21 03:02:01;;;;;;;12.73;8.63;;;;;;;25.84;55.27;100202.09;5071352;28;20048;-70
2023/06/21 03:04:29;;;;;;;11.20;8.38;;;;;;;25.83;55.06;100205.03;5071662;28;20064;-70
2023/06/21 03:07:01;;;;;;;10.80;8.90;;;;;;;25.81;55.21;100207.94;5071600;28;20087;-70
2023/06/21 03:09:30;;;;;;;12.07;8.70;;;;;;;25.79;54.97;100201.00;5071525;28;20048;-68
2023/06/21 03:11:59;;;;;;;11.93;8.75;;;;;;;25.78;55.00;100202.03;5071400;28;20417;-70
2023/06/21 03:14:27;;;;;;;10.48;8.55;;;;;;;25.75;54.85;100207.88;5071064;28;20067;-70
2023/06/21 03:16:55;;;;;;;12.20;8.88;;;;;;;25.73;55.29;100199.88;5071439;28;20054;-70
2023/06/21 03:19:23;;;;;;;9.93;8.88;;;;;;;25.72;54.93;100205.53;5071410;28;20048;-70
2023/06/21 03:21:52;;;;;;;12.07;8.70;;;;;;;25.68;54.96;100202.31;5071368;28;20053;-69
2023/06/21 03:24:21;;;;;;;12.90;8.38;;;;;;;25.65;55.64;100208.97;5071179;28;20540;-69
2023/06/21 03:26:50;;;;;;;11.45;8.25;;;;;;;25.61;55.83;100213.16;5071252;28;20491;-69
2023/06/21 03:29:19;;;;;;;11.38;8.65;;;;;;;25.58;55.90;100212.69;5071157;28;20395;-69
2023/06/21 03:31:47;;;;;;;10.82;8.13;;;;;;;25.57;55.58;100211.81;5071289;28;20048;-69
2023/06/21 03:34:15;;;;;;;9.63;8.25;;;;;;;25.57;55.88;100211.81;5071206;28;20127;-69
2023/06/21 03:36:44;;;;;;;9.63;8.10;;;;;;;25.58;55.77;100208.06;5071177;28;20045;-69
2023/06/21 03:39:12;;;;;;;10.80;8.65;;;;;;;25.57;55.92;100200.88;5075227;28;20052;-69
2023/06/21 03:41:40;;;;;;;10.35;8.50;;;;;;;25.56;55.92;100199.19;5074957;28;20045;-69
2023/06/21 03:44:10;;;;;;;11.55;8.90;;;;;;;25.56;55.84;100199.19;5075327;28;20071;-69
2023/06/21 03:46:38;;;;;;;9.57;8.57;;;;;;;25.57;55.59;100192.69;5075343;28;20051;-69
2023/06/21 03:49:06;;;;;;;11.20;8.68;;;;;;;25.57;55.92;100189.97;5074848;28;20048;-69
2023/06/21 03:51:34;;;;;;;10.18;8.77;;;;;;;25.57;55.77;100198.16;5074852;28;20508;-69
2023/06/21 03:54:03;;;;;;;10.20;8.25;;;;;;;25.56;55.94;100193.72;5075086;28;20045;-69
2023/06/21 03:56:31;;;;;;;10.40;8.90;;;;;;;25.55;55.54;100191.19;5074826;28;20060;-69
2023/06/21 03:59:00;;;;;;;11.52;9.38;;;;;;;25.55;55.92;100188.47;5074733;28;20090;-69
2023/06/21 04:01:30;;;;;;;10.60;8.40;;;;;;;25.55;55.98;100197.50;5074751;28;20047;-69
2023/06/21 04:03:58;;;;;;;10.18;8.50;;;;;;;25.55;55.93;100202.97;5074601;28;20514;-69
2023/06/21 04:06:26;;;;;;;10.07;8.80;;;;;;;25.56;55.93;100209.28;5074532;28;20051;-69
2023/06/21 04:08:55;;;;;;;12.13;8.90;;;;;;;25.55;55.89;100202.97;5074486;28;20044;-68
2023/06/21 04:11:23;;;;;;;11.75;8.40;;;;;;;25.55;55.69;100208.44;5074683;28;20140;-70
2023/06/21 04:13:51;;;;;;;11.23;8.95;;;;;;;25.54;55.75;100206.75;5074380;28;20092;-68
2023/06/21 04:16:19;;;;;;;11.55;8.68;;;;;;;25.55;55.38;100210.31;5074421;28;20480;-69
2023/06/21 04:18:49;;;;;;;10.45;8.48;;;;;;;25.54;55.62;100201.28;5074233;28;20080;-69
2023/06/21 04:21:17;;;;;;;11.43;8.52;;;;;;;25.53;55.61;100205.03;5074206;28;20048;-70
2023/06/21 04:23:45;;;;;;;9.18;8.15;;;;;;;25.52;55.60;100211.56;5074483;28;20048;-70
2023/06/21 04:26:13;;;;;;;9.95;8.30;;;;;;;25.53;55.30;100220.59;5074181;28;20052;-70
2023/06/21 04:28:41;;;;;;;13.18;8.82;;;;;;;25.52;55.47;100219.75;5074363;28;20048;-70
2023/06/21 04:31:09;;;;;;;12.30;8.82;;;;;;;25.52;55.53;100230.66;5074209;28;20044;-69
2023/06/21 04:33:37;;;;;;;13.57;8.30;;;;;;;25.53;55.20;100242.44;5074197;28;20048;-70
2023/06/21 04:36:07;;;;;;;12.60;8.60;;;;;;;25.53;55.16;100253.34;5074011;28;20050;-70
2023/06/21 04:38:37;;;;;;;11.35;8.82;;;;;;;25.52;55.40;100260.72;5074105;28;20128;-70
2023/06/21 04:41:05;;;;;;;9.20;8.15;;;;;;;25.51;55.26;100267.22;5074010;28;20044;-69
2023/06/21 04:43:33;;;;;;;10.35;8.32;;;;;;;25.51;55.16;100261.75;5074145;28;20110;-70
2023/06/21 04:46:01;;;;;;;10.05;8.10;;;;;;;25.50;55.10;100270.97;5073811;28;20493;-69
2023/06/21 04:48:29;;;;;;;10.73;8.30;;;;;;;25.49;55.01;100272.00;5073129;28;20048;-70
2023/06/21 04:50:57;;;;;;;9.95;8.13;;;;;;;25.50;54.98;100275.59;5073569;28;20405;-71
2023/06/21 04:53:29;;;;;;;11.07;8.55;;;;;;;25.50;55.08;100287.34;5073651;28;20470;-69
2023/06/21 04:55:58;;;;;;;12.35;8.15;;;;;;;25.48;55.08;100285.84;5073550;28;20051;-69
2023/06/21 04:58:26;;;;;;;12.57;8.70;;;;;;;25.46;54.98;100280.56;5073757;28;20053;-70
2023/06/21 05:00:55;;;;;;;12.10;8.25;;;;;;;25.47;54.88;100282.25;5073567;28;20052;-70
2023/06/21 05:03:23;;;;;;;12.27;8.23;;;;;;;25.46;54.70;100274.25;5073425;28;20110;-69
2023/06/21 05:05:52;;;;;;;10.23;8.65;;;;;;;25.44;54.97;100281.78;5073827;28;20829;-69
2023/06/21 05:08:20;;;;;;;10.95;8.70;;;;;;;25.40;54.96;100278.59;5073594;28;20048;-69
2023/06/21 05:10:49;;;;;;;11.10;8.32;;;;;;;25.37;54.71;100270.75;5073584;28;20053;-69
2023/06/21 05:13:18;;;;;;;13.30;8.93;;;;;;;25.34;54.70;100266.53;5073172;28;20098;-69
2023/06/21 05:15:46;;;;;;;11.48;8.95;;;;;;;25.31;54.70;100268.81;5071545;28;20053;-70
2023/06/21 05:18:15;;;;;;;14.57;9.05;;;;;;;25.28;54.64;100271.88;5072734;28;20055;-68
2023/06/21 05:20:43;;;;;;;10.90;8.68;;;;;;;25.28;55.05;100266.44;5071279;28;20068;-68
2023/06/21 05:23:11;;;;;;;12.13;9.07;;;;;;;25.23;54.61;100258.81;5073141;28;20497;-64
2023/06/21 05:25:40;;;;;;;9.82;8.65;;;;;;;25.23;54.81;100249.78;5072288;28;20480;-67
2023/06/21 05:28:09;;;;;;;11.13;8.65;;;;;;;25.21;55.38;100254.59;5072413;28;20044;-67
2023/06/21 05:30:38;;;;;;;11.32;8.68;;;;;;;25.19;55.22;100251.16;5071579;28;20501;-67
2023/06/21 05:33:06;;;;;;;13.07;8.45;;;;;;;25.19;55.59;100262.09;5072171;28;20041;-67
2023/06/21 05:35:34;;;;;;;10.60;8.55;;;;;;;25.19;55.48;100264.81;5068788;28;20212;-67
2023/06/21 05:38:03;;;;;;;11.50;9.07;;;;;;;25.17;55.38;100264.16;5070449;28;20084;-68
2023/06/21 05:40:31;;;;;;;10.88;9.05;;;;;;;25.18;55.41;100266.69;5071696;28;20040;-68
2023/06/21 05:43:01;;;;;;;12.60;8.88;;;;;;;25.19;55.59;100265.69;5071971;28;20036;-67
2023/06/21 05:45:31;;;;;;;12.27;8.57;;;;;;;25.21;55.68;100270.97;5071955;28;20056;-67
2023/06/21 05:47:59;;;;;;;10.73;8.75;;;;;;;25.23;55.40;100267.00;5072030;28;20044;-67
2023/06/21 05:50:30;;;;;;;14.00;8.90;;;;;;;25.25;55.48;100277.72;5071952;28;20056;-70
2023/06/21 05:52:59;;;;;;;11.93;8.85;;;;;;;25.26;55.46;100276.69;5072175;28;20044;-67
2023/06/21 05:55:27;;;;;;;10.23;8.20;;;;;;;25.27;55.70;100281.13;5072127;28;20052;-67
2023/06/21 05:57:55;;;;;;;13.07;8.43;;;;;;;25.29;55.57;100269.00;5072025;28;20048;-68
2023/06/21 06:00:23;;;;;;;13.48;8.65;;;;;;;25.30;55.68;100273.41;5071680;28;20044;-67
2023/06/21 06:02:53;;;;;;;12.43;8.48;;;;;;;25.33;55.91;100269.47;5071825;28;20047;-67
2023/06/21 06:05:21;;;;;;;11.75;9.60;;;;;;;25.33;55.83;100266.72;5070906;28;20040;-67
2023/06/21 06:07:50;;;;;;;13.75;9.10;;;;;;;25.34;55.70;100260.22;5068449;28;20044;-66
2023/06/21 06:10:18;;;;;;;13.20;8.65;;;;;;;25.36;55.92;100263.63;5070960;28;20135;-67
2023/06/21 06:12:46;;;;;;;13.55;9.10;;;;;;;25.39;55.93;100271.44;5071250;28;20052;-67
2023/06/21 06:15:15;;;;;;;11.50;9.00;;;;;;;25.41;56.02;100272.09;5070502;28;20083;-67
2023/06/21 06:17:43;;;;;;;12.82;8.60;;;;;;;25.44;56.16;100270.88;5070993;28;20401;-69
2023/06/21 06:20:13;;;;;;;11.18;8.70;;;;;;;25.47;56.49;100271.34;5070670;28;20052;-69
2023/06/21 06:22:42;;;;;;;14.13;9.05;;;;;;;25.48;56.10;100267.59;5070739;28;20040;-69
2023/06/21 06:25:10;;;;;;;14.10;9.63;;;;;;;25.50;56.29;100276.44;5070966;28;20052;-68
2023/06/21 06:27:39;;;;;;;11.55;8.82;;;;;;;25.52;56.07;100274.34;5071358;28;20044;-68
2023/06/21 06:30:08;;;;;;;12.50;9.15;;;;;;;25.53;55.96;100273.31;5070474;28;20047;-68
2023/06/21 06:32:36;;;;;;;14.10;9.63;;;;;;;25.56;55.96;100274.81;5071414;28;20045;-67
2023/06/21 06:35:06;;;;;;;12.68;8.45;;;;;;;25.58;56.01;100272.78;5071112;28;20051;-68
2023/06/21 06:37:36;;;;;;;13.65;9.55;;;;;;;25.61;56.78;100266.91;5070847;28;20049;-68
2023/06/21 06:40:05;;;;;;;14.15;9.65;;;;;;;25.63;56.83;100273.03;5070915;28;20490;-67
2023/06/21 06:42:33;;;;;;;15.13;9.48;;;;;;;25.66;56.52;100264.44;5071279;28;20044;-68
2023/06/21 06:45:07;;;;;;;12.32;9.50;;;;;;;25.67;56.75;100264.28;5071165;28;20448;-68
2023/06/21 06:47:35;;;;;;;14.60;9.32;;;;;;;25.72;56.96;100262.88;5070947;28;20051;-68
2023/06/21 06:50:04;;;;;;;14.60;9.48;;;;;;;25.75;57.27;100262.50;5071111;28;20409;-68
2023/06/21 06:52:33;;;;;;;13.82;9.23;;;;;;;25.77;57.63;100260.41;5069802;28;20090;-66
2023/06/21 06:55:03;;;;;;;23.88;11.80;;;;;;;25.80;57.13;100265.53;5070703;28;20048;-67
2023/06/21 06:57:32;;;;;;;15.13;10.35;;;;;;;25.82;57.70;100263.44;5070991;28;20064;-68
2023/06/21 07:00:11;;;;;;;20.65;10.15;;;;;;;25.86;58.04;100259.28;5070753;28;20052;-68
2023/06/21 07:02:39;;;;;;;18.33;9.98;;;;;;;25.88;57.83;100258.06;5069621;28;20163;-68
2023/06/21 07:05:08;;;;;;;14.82;10.75;;;;;;;25.92;57.58;100266.72;5071374;28;20083;-68
2023/06/21 07:07:36;;;;;;;15.35;10.77;;;;;;;25.94;57.44;100267.38;5070901;28;20486;-68
2023/06/21 07:10:07;;;;;;;17.45;10.52;;;;;;;25.97;57.62;100256.06;5070088;28;20490;-69
2023/06/21 07:12:35;;;;;;;15.02;10.45;;;;;;;26.00;57.57;100266.63;5070688;28;20060;-69
2023/06/21 07:15:03;;;;;;;17.08;10.88;;;;;;;26.02;57.38;100267.25;5070819;28;20444;-69
2023/06/21 07:17:31;;;;;;;16.38;11.27;;;;;;;26.06;57.67;100271.31;5071109;28;20048;-69
2023/06/21 07:20:00;;;;;;;15.43;10.85;;;;;;;26.10;57.96;100267.16;5071070;28;20478;-69
2023/06/21 07:22:28;;;;;;;17.98;10.85;;;;;;;26.13;57.96;100255.81;5071092;28;20219;-69
2023/06/21 07:24:56;;;;;;;18.20;11.32;;;;;;;26.17;57.83;100250.84;5071234;28;20138;-68
2023/06/21 07:27:27;;;;;;;18.90;11.27;;;;;;;26.19;57.62;100255.06;5071073;28;20052;-68
2023/06/21 07:29:55;;;;;;;18.58;11.18;;;;;;;26.21;57.67;100252.97;5071000;28;20386;-68
2023/06/21 07:32:24;;;;;;;18.48;11.18;;;;;;;26.25;57.08;100264.38;5071137;28;20102;-68
2023/06/21 07:34:57;;;;;;;16.45;10.35;;;;;;;26.28;57.45;100254.94;5071110;28;20197;-68
2023/06/21 07:37:27;;;;;;;13.93;11.07;;;;;;;26.28;57.77;100257.69;5070936;28;20074;-68
2023/06/21 07:39:56;;;;;;;16.42;10.85;;;;;;;26.31;57.81;100247.19;5070744;28;20129;-67
2023/06/21 07:42:26;;;;;;;14.20;10.20;;;;;;;26.34;57.70;100251.41;5070766;28;20056;-67
2023/06/21 07:44:55;;;;;;;18.23;10.75;;;;;;;26.38;57.64;100250.03;5103045;28;20131;-67
2023/06/21 07:47:23;;;;;;;18.80;10.75;;;;;;;26.39;57.17;100254.47;5070756;28;20512;-68
2023/06/21 07:49:52;;;;;;;15.23;11.23;;;;;;;26.41;57.36;100261.41;5070743;28;20462;-67
2023/06/21 07:52:20;;;;;;;16.48;11.10;;;;;;;26.45;57.27;100264.63;5070617;28;20051;-67
2023/06/21 07:54:50;;;;;;;18.13;11.00;;;;;;;26.49;57.28;100260.44;5070494;28;20049;-68
2023/06/21 07:57:18;;;;;;;14.93;10.65;;;;;;;26.51;57.12;100258.34;5070871;28;20074;-68
2023/06/21 07:59:48;;;;;;;16.77;10.13;;;;;;;26.53;57.60;100256.25;5070938;28;20040;-67
2023/06/21 08:02:19;;;;;;;16.10;10.35;;;;;;;26.55;57.18;100259.69;5070761;28;20045;-67
2023/06/21 08:04:47;;;;;;;17.08;11.30;;;;;;;26.59;57.22;100255.50;5070669;28;20486;-67
2023/06/21 08:07:15;;;;;;;18.15;11.23;;;;;;;26.62;56.93;100248.78;5070615;28;20090;-67
2023/06/21 08:09:44;;;;;;;15.18;10.70;;;;;;;26.66;57.39;100250.09;5070627;28;20478;-68
2023/06/21 08:12:13;;;;;;;14.65;10.77;;;;;;;26.69;57.27;100247.78;5070779;28;20049;-67
2023/06/21 08:14:42;;;;;;;18.23;11.20;;;;;;;26.72;56.67;100239.19;5070531;28;20114;-68
2023/06/21 08:17:11;;;;;;;15.48;11.20;;;;;;;26.75;57.09;100230.59;5070643;28;20045;-67
2023/06/21 08:19:39;;;;;;;15.15;10.80;;;;;;;26.79;56.67;100244.72;5070171;28;20083;-68
2023/06/21 08:22:08;;;;;;;13.25;10.45;;;;;;;26.81;56.56;100259.91;5070800;28;20457;-67
2023/06/21 08:24:36;;;;;;;14.68;10.70;;;;;;;26.83;56.97;100257.00;5072063;28;20044;-67
2023/06/21 08:27:08;;;;;;;14.68;10.70;;;;;;;26.85;56.84;100260.38;5074074;28;20508;-67
2023/06/21 08:29:36;;;;;;;15.00;10.53;;;;;;;26.88;56.82;100264.59;5073789;28;20417;-66
2023/06/21 08:32:05;;;;;;;15.57;10.73;;;;;;;26.89;57.02;100269.84;5074022;28;20285;-68
2023/06/21 08:34:35;;;;;;;13.93;10.73;;;;;;;26.92;56.65;100269.44;5073842;28;20056;-68
2023/06/21 08:37:03;;;;;;;15.55;10.65;;;;;;;26.95;56.91;100266.34;5074004;28;20044;-67
2023/06/21 08:39:31;;;;;;;19.90;10.43;;;;;;;26.98;56.69;100271.41;5073767;28;20076;-67
2023/06/21 08:42:00;;;;;;;13.98;10.70;;;;;;;27.03;56.16;100270.88;5073971;28;20045;-68
2023/06/21 08:44:28;;;;;;;14.20;10.48;;;;;;;27.06;55.69;100279.50;5073842;28;20072;-68
2023/06/21 08:46:57;;;;;;;12.63;10.32;;;;;;;27.10;55.03;100274.47;5073462;28;20363;-67
2023/06/21 08:49:27;;;;;;;13.50;10.15;;;;;;;27.13;54.82;100279.56;5073603;28;20143;-67
2023/06/21 08:52:00;;;;;;;13.30;10.30;;;;;;;27.18;54.39;100276.22;5073893;28;20452;-67
2023/06/21 08:54:30;;;;;;;13.48;10.45;;;;;;;27.22;54.44;100280.28;5073761;28;20051;-67
2023/06/21 08:57:07;;;;;;;12.30;9.85;;;;;;;27.24;54.32;100276.28;5073493;28;20055;-67
2023/06/21 08:59:42;;;;;;;13.32;9.80;;;;;;;27.27;54.78;100281.34;5073341;28;20229;-67
2023/06/21 09:02:21;;;;;;;13.93;10.13;;;;;;;27.30;54.73;100275.47;5073439;28;20547;-68
2023/06/21 09:04:54;;;;;;;12.60;9.70;;;;;;;27.32;54.10;100276.13;5073467;28;20048;-68
2023/06/21 09:07:24;;;;;;;14.00;10.00;;;;;;;27.34;54.33;100274.03;5073266;28;20144;-68
2023/06/21 09:09:55;;;;;;;14.80;10.30;;;;;;;27.37;54.64;100275.50;5073027;28;20560;-68
2023/06/21 09:12:24;;;;;;;14.95;10.23;;;;;;;27.42;54.11;100272.19;5073463;28;20041;-68
2023/06/21 09:14:53;;;;;;;13.85;10.38;;;;;;;27.46;53.79;100267.97;5073241;28;20052;-68
2023/06/21 09:17:23;;;;;;;13.98;10.60;;;;;;;27.50;53.72;100269.25;5073253;28;20048;-68
2023/06/21 09:19:53;;;;;;;13.60;10.40;;;;;;;27.52;53.72;100270.78;5072780;28;20051;-68
2023/06/21 09:22:24;;;;;;;12.25;9.80;;;;;;;27.56;53.45;100262.97;5073079;28;20071;-68
2023/06/21 09:24:53;;;;;;;12.18;9.80;;;;;;;27.57;53.47;100267.41;5073138;28;20089;-68
2023/06/21 09:27:21;;;;;;;14.02;10.65;;;;;;;27.57;53.80;100260.03;5073121;28;20409;-68
2023/06/21 09:29:49;;;;;;;13.50;10.57;;;;;;;27.60;53.95;100267.00;5073085;28;20048;-68
2023/06/21 09:32:17;;;;;;;14.77;9.98;;;;;;;27.67;52.78;100273.41;5072925;28;20521;-68
2023/06/21 09:34:46;;;;;;;10.68;9.18;;;;;;;27.70;52.36;100259.31;5072357;28;20110;-68
2023/06/21 09:37:34;;;;;;;13.57;10.05;;;;;;;27.75;52.40;100267.75;5072831;28;20083;-68
2023/06/21 09:40:03;;;;;;;12.73;9.75;;;;;;;27.78;52.06;100272.81;5072976;28;20133;-68
2023/06/21 09:42:31;;;;;;;13.40;10.18;;;;;;;27.82;52.29;100268.63;5072914;28;20051;-68
2023/06/21 09:44:59;;;;;;;11.80;10.10;;;;;;;27.85;51.98;100270.97;5072631;28;20048;-68
2023/06/21 09:47:30;;;;;;;12.18;9.50;;;;;;;27.86;52.33;100272.66;5072575;28;20048;-68
2023/06/21 09:49:59;;;;;;;17.38;10.60;;;;;;;27.94;52.23;100283.44;5072561;28;20044;-68
2023/06/21 09:52:27;;;;;;;12.55;10.40;;;;;;;27.99;52.49;100279.22;5072268;28;20093;-68
2023/06/21 09:54:58;;;;;;;13.70;10.40;;;;;;;28.09;52.46;100285.19;5072671;28;20383;-67
2023/06/21 09:57:30;;;;;;;11.57;10.38;;;;;;;28.14;52.60;100289.00;5072315;28;20052;-67
2023/06/21 10:00:00;;;;;;;14.60;11.02;;;;;;;28.16;52.81;100270.44;5072095;28;20086;-68
2023/06/21 10:02:28;;;;;;;16.60;10.75;;;;;;;28.21;53.02;100278.91;5072619;28;20083;-68
2023/06/21 10:04:56;;;;;;;14.98;10.30;;;;;;;28.27;53.28;100281.84;5072262;28;20110;-68
2023/06/21 10:07:26;;;;;;;14.30;10.50;;;;;;;28.32;52.82;100284.88;5072221;28;20041;-68
2023/06/21 10:09:55;;;;;;;14.57;10.88;;;;;;;28.33;52.49;100276.44;5071988;28;20135;-68
2023/06/21 10:12:24;;;;;;;11.45;10.27;;;;;;;28.35;52.07;100274.31;5071966;28;20350;-68
2023/06/21 10:14:53;;;;;;;12.23;9.88;;;;;;;28.40;51.93;100271.81;5072158;28;20060;-69
2023/06/21 10:17:21;;;;;;;13.40;10.02;;;;;;;28.48;52.03;100268.88;5072199;28;20422;-67
2023/06/21 10:19:51;;;;;;;13.57;10.57;;;;;;;28.52;52.30;100281.13;5071974;28;20071;-67
2023/06/21 10:22:21;;;;;;;13.68;10.23;;;;;;;28.54;52.38;100280.06;5071994;28;20139;-67
2023/06/21 10:24:51;;;;;;;12.95;9.93;;;;;;;28.56;51.98;100280.69;5072480;28;20048;-66
2023/06/21 10:27:20;;;;;;;15.45;10.27;;;;;;;28.58;51.77;100279.44;5071737;28;20056;-68
2023/06/21 10:29:56;;;;;;;13.18;10.15;;;;;;;28.61;51.55;100283.66;5071944;28;20056;-67
2023/06/21 10:32:25;;;;;;;19.15;9.98;;;;;;;28.64;51.08;100284.06;5071883;28;20372;-68
2023/06/21 10:34:58;;;;;;;10.60;9.32;;;;;;;28.68;50.77;100285.38;5071629;28;20044;-68
2023/06/21 10:37:33;;;;;;;12.10;9.90;;;;;;;28.72;51.41;100291.28;5071538;28;20044;-68
2023/06/21 10:40:05;;;;;;;14.40;10.95;;;;;;;28.73;52.03;100288.31;5071711;28;20052;-67
2023/06/21 10:42:40;;;;;;;13.65;10.27;;;;;;;28.76;52.28;100306.28;5071819;28;20127;-67
2023/06/21 10:45:13;;;;;;;14.43;10.18;;;;;;;28.76;52.03;100292.56;5071609;28;20155;-67
2023/06/21 10:47:42;;;;;;;13.85;10.40;;;;;;;28.78;52.08;100298.69;5070742;28;20053;-67
2023/06/21 10:50:12;;;;;;;11.65;9.30;;;;;;;28.77;51.90;100295.09;5071534;28;20044;-68
2023/06/21 10:52:40;;;;;;;12.40;9.90;;;;;;;28.78;51.91;100302.28;5071716;28;20044;-68
2023/06/21 10:55:10;;;;;;;11.25;9.77;;;;;;;28.79;51.83;100303.94;5071508;28;20490;-68
2023/06/21 10:57:40;;;;;;;11.63;9.80;;;;;;;28.82;51.22;100304.59;5071774;28;20052;-68
2023/06/21 11:00:11;;;;;;;13.90;9.85;;;;;;;28.83;51.29;100304.38;5071204;28;20105;-68
2023/06/21 11:02:40;;;;;;;10.83;9.43;;;;;;;28.82;50.89;100305.44;5071367;28;20051;-68
2023/06/21 11:05:19;;;;;;;11.23;10.00;;;;;;;28.82;50.77;100305.44;5071204;28;20581;-68
2023/06/21 11:07:54;;;;;;;10.10;9.10;;;;;;;28.83;50.80;100298.88;5071481;28;20052;-68
2023/06/21 11:10:30;;;;;;;12.27;9.05;;;;;;;28.83;50.71;100296.13;5071337;28;20135;-69
2023/06/21 11:12:59;;;;;;;11.90;9.10;;;;;;;28.83;50.81;100300.78;5071350;28;20048;-68
2023/06/21 11:15:29;;;;;;;10.75;9.05;;;;;;;28.84;50.71;100306.06;5070978;28;20490;-68
2023/06/21 11:18:01;;;;;;;14.73;9.32;;;;;;;28.83;50.91;100307.13;5071153;28;20485;-68
2023/06/21 11:20:32;;;;;;;13.43;9.90;;;;;;;28.84;51.33;100300.56;5071345;28;20126;-68
2023/06/21 11:23:07;;;;;;;11.57;10.18;;;;;;;28.86;51.46;100305.88;5071244;28;20049;-67
2023/06/21 11:25:37;;;;;;;13.05;9.90;;;;;;;28.91;51.75;100304.19;5071290;28;20056;-68